sensor_id;sensor_type;location;lat;lon;timestamp;P1;durP1;ratioP1;P2;durP2;ratioP2
2710;SDS011;20721;47.402;8.550;2022-08-30T00:00:09;9.55;;;9.53;;
2710;SDS011;20721;47.402;8.550;2022-08-30T00:01:09;10.15;;;10.15;;
2710;SDS011;20721;47.402;8.550;2022-08-30T00:02:59;8.32;;;8.32;;
2710;SDS011;20721;47.402;8.550;2022-08-30T00:04:00;9.31;;;9.31;;
2710;SDS011;20721;47.402;8.550;2022-08-30T00:05:59;8.97;;;8.97;;
2710;SDS011;20721;47.402;8.550;2022-08-30T00:06:59;9.46;;;9.46;;
2710;SDS011;20721;47.402;8.550;2022-08-30T00:07:59;9.06;;;9.06;;
2710;SDS011;20721;47.402;8.550;2022-08-30T00:08:59;8.98;;;8.98;;
2710;SDS011;20721;47.402;8.550;2022-08-30T00:09:59;8.37;;;8.37;;
2710;SDS011;20721;47.402;8.550;2022-08-30T00:11:00;8.69;;;8.69;;
2710;SDS011;20721;47.402;8.550;2022-08-30T00:12:01;8.97;;;8.97;;
2710;SDS011;20721;47.402;8.550;2022-08-30T00:12:59;8.63;;;8.63;;
2710;SDS011;20721;47.402;8.550;2022-08-30T00:14:00;9.03;;;9.03;;
2710;SDS011;20721;47.402;8.550;2022-08-30T00:14:59;9.10;;;8.91;;
2710;SDS011;20721;47.402;8.550;2022-08-30T00:15:59;8.29;;;8.29;;
2710;SDS011;20721;47.402;8.550;2022-08-30T00:16:59;9.47;;;9.18;;
2710;SDS011;20721;47.402;8.550;2022-08-30T00:17:59;9.13;;;8.89;;
2710;SDS011;20721;47.402;8.550;2022-08-30T00:19:59;9.28;;;8.98;;
2710;SDS011;20721;47.402;8.550;2022-08-30T00:21:59;9.66;;;9.66;;
2710;SDS011;20721;47.402;8.550;2022-08-30T00:23:59;9.71;;;9.71;;
2710;SDS011;20721;47.402;8.550;2022-08-30T00:24:59;8.81;;;8.81;;
2710;SDS011;20721;47.402;8.550;2022-08-30T00:25:59;9.55;;;9.55;;
2710;SDS011;20721;47.402;8.550;2022-08-30T00:26:59;8.86;;;8.86;;
2710;SDS011;20721;47.402;8.550;2022-08-30T00:27:59;8.34;;;8.34;;
2710;SDS011;20721;47.402;8.550;2022-08-30T00:28:59;8.26;;;8.26;;
2710;SDS011;20721;47.402;8.550;2022-08-30T00:29:59;8.55;;;8.55;;
2710;SDS011;20721;47.402;8.550;2022-08-30T00:31:00;7.94;;;7.94;;
2710;SDS011;20721;47.402;8.550;2022-08-30T00:31:59;8.85;;;8.85;;
2710;SDS011;20721;47.402;8.550;2022-08-30T00:32:59;9.11;;;9.10;;
2710;SDS011;20721;47.402;8.550;2022-08-30T00:33:59;9.45;;;9.45;;
2710;SDS011;20721;47.402;8.550;2022-08-30T00:35:59;9.04;;;9.04;;
2710;SDS011;20721;47.402;8.550;2022-08-30T00:38:00;9.31;;;9.31;;
2710;SDS011;20721;47.402;8.550;2022-08-30T00:38:59;9.16;;;9.03;;
2710;SDS011;20721;47.402;8.550;2022-08-30T00:39:59;9.18;;;9.18;;
2710;SDS011;20721;47.402;8.550;2022-08-30T00:41:00;9.41;;;9.36;;
2710;SDS011;20721;47.402;8.550;2022-08-30T00:41:59;9.04;;;9.04;;
2710;SDS011;20721;47.402;8.550;2022-08-30T00:43:03;8.19;;;8.17;;
2710;SDS011;20721;47.402;8.550;2022-08-30T00:43:59;9.62;;;9.62;;
2710;SDS011;20721;47.402;8.550;2022-08-30T00:45:00;9.13;;;9.13;;
2710;SDS011;20721;47.402;8.550;2022-08-30T00:45:59;9.25;;;9.25;;
2710;SDS011;20721;47.402;8.550;2022-08-30T00:46:59;9.31;;;9.19;;
2710;SDS011;20721;47.402;8.550;2022-08-30T00:50:01;8.17;;;8.15;;
2710;SDS011;20721;47.402;8.550;2022-08-30T00:51:04;9.27;;;9.27;;
2710;SDS011;20721;47.402;8.550;2022-08-30T00:51:59;9.50;;;9.50;;
2710;SDS011;20721;47.402;8.550;2022-08-30T00:53:03;9.19;;;9.19;;
2710;SDS011;20721;47.402;8.550;2022-08-30T00:54:01;10.31;;;10.31;;
2710;SDS011;20721;47.402;8.550;2022-08-30T00:55:00;9.96;;;9.96;;
2710;SDS011;20721;47.402;8.550;2022-08-30T00:56:00;9.73;;;9.73;;
2710;SDS011;20721;47.402;8.550;2022-08-30T00:56:59;9.65;;;9.65;;
2710;SDS011;20721;47.402;8.550;2022-08-30T00:58:02;9.51;;;9.51;;
2710;SDS011;20721;47.402;8.550;2022-08-30T00:59:01;9.10;;;9.10;;
2710;SDS011;20721;47.402;8.550;2022-08-30T01:01:01;9.11;;;9.11;;
2710;SDS011;20721;47.402;8.550;2022-08-30T01:01:59;10.13;;;9.99;;
2710;SDS011;20721;47.402;8.550;2022-08-30T01:03:02;9.94;;;9.94;;
2710;SDS011;20721;47.402;8.550;2022-08-30T01:03:59;9.53;;;9.44;;
2710;SDS011;20721;47.402;8.550;2022-08-30T01:05:02;9.70;;;9.70;;
2710;SDS011;20721;47.402;8.550;2022-08-30T01:05:59;8.71;;;8.71;;
2710;SDS011;20721;47.402;8.550;2022-08-30T01:07:00;9.43;;;9.43;;
2710;SDS011;20721;47.402;8.550;2022-08-30T01:07:59;9.00;;;9.00;;
2710;SDS011;20721;47.402;8.550;2022-08-30T01:09:01;10.28;;;10.28;;
2710;SDS011;20721;47.402;8.550;2022-08-30T01:10:00;9.95;;;9.95;;
2710;SDS011;20721;47.402;8.550;2022-08-30T01:11:01;10.41;;;10.41;;
2710;SDS011;20721;47.402;8.550;2022-08-30T01:11:59;9.11;;;9.11;;
2710;SDS011;20721;47.402;8.550;2022-08-30T01:12:59;10.14;;;10.14;;
2710;SDS011;20721;47.402;8.550;2022-08-30T01:14:00;9.19;;;9.19;;
2710;SDS011;20721;47.402;8.550;2022-08-30T01:14:59;9.12;;;9.12;;
2710;SDS011;20721;47.402;8.550;2022-08-30T01:16:59;9.15;;;9.15;;
2710;SDS011;20721;47.402;8.550;2022-08-30T01:20:06;9.02;;;9.02;;
2710;SDS011;20721;47.402;8.550;2022-08-30T01:22:04;9.18;;;9.18;;
2710;SDS011;20721;47.402;8.550;2022-08-30T01:23:07;9.43;;;9.43;;
2710;SDS011;20721;47.402;8.550;2022-08-30T01:25:03;9.70;;;9.70;;
2710;SDS011;20721;47.402;8.550;2022-08-30T01:26:59;9.51;;;9.47;;
2710;SDS011;20721;47.402;8.550;2022-08-30T01:28:05;9.19;;;9.19;;
2710;SDS011;20721;47.402;8.550;2022-08-30T01:29:03;9.79;;;9.79;;
2710;SDS011;20721;47.402;8.550;2022-08-30T01:29:59;9.29;;;9.29;;
2710;SDS011;20721;47.402;8.550;2022-08-30T01:30:59;8.95;;;8.95;;
2710;SDS011;20721;47.402;8.550;2022-08-30T01:31:59;9.36;;;9.36;;
2710;SDS011;20721;47.402;8.550;2022-08-30T01:34:00;9.81;;;9.81;;
2710;SDS011;20721;47.402;8.550;2022-08-30T01:34:59;9.04;;;9.04;;
2710;SDS011;20721;47.402;8.550;2022-08-30T01:36:02;10.01;;;10.01;;
2710;SDS011;20721;47.402;8.550;2022-08-30T01:37:00;10.23;;;10.23;;
2710;SDS011;20721;47.402;8.550;2022-08-30T01:38:02;9.36;;;9.36;;
2710;SDS011;20721;47.402;8.550;2022-08-30T01:39:01;9.08;;;9.08;;
2710;SDS011;20721;47.402;8.550;2022-08-30T01:39:59;9.75;;;9.75;;
2710;SDS011;20721;47.402;8.550;2022-08-30T01:41:00;9.58;;;9.58;;
2710;SDS011;20721;47.402;8.550;2022-08-30T01:42:59;9.23;;;9.23;;
2710;SDS011;20721;47.402;8.550;2022-08-30T01:44:59;9.41;;;9.41;;
2710;SDS011;20721;47.402;8.550;2022-08-30T01:46:59;9.21;;;9.20;;
2710;SDS011;20721;47.402;8.550;2022-08-30T01:47:59;10.27;;;10.01;;
2710;SDS011;20721;47.402;8.550;2022-08-30T01:52:09;9.71;;;9.71;;
2710;SDS011;20721;47.402;8.550;2022-08-30T01:53:59;10.17;;;10.17;;
2710;SDS011;20721;47.402;8.550;2022-08-30T01:54:59;9.65;;;9.65;;
2710;SDS011;20721;47.402;8.550;2022-08-30T01:56:59;9.95;;;9.95;;
2710;SDS011;20721;47.402;8.550;2022-08-30T01:58:01;10.02;;;10.02;;
2710;SDS011;20721;47.402;8.550;2022-08-30T01:59:59;9.95;;;9.81;;
2710;SDS011;20721;47.402;8.550;2022-08-30T02:01:00;8.92;;;8.88;;
2710;SDS011;20721;47.402;8.550;2022-08-30T02:01:59;9.20;;;9.20;;
2710;SDS011;20721;47.402;8.550;2022-08-30T02:02:59;9.07;;;9.07;;
2710;SDS011;20721;47.402;8.550;2022-08-30T02:03:59;8.95;;;8.95;;
2710;SDS011;20721;47.402;8.550;2022-08-30T02:05:01;9.57;;;9.57;;
2710;SDS011;20721;47.402;8.550;2022-08-30T02:06:01;10.05;;;9.75;;
2710;SDS011;20721;47.402;8.550;2022-08-30T02:06:59;9.12;;;9.12;;
2710;SDS011;20721;47.402;8.550;2022-08-30T02:07:59;9.69;;;9.69;;
2710;SDS011;20721;47.402;8.550;2022-08-30T02:08:59;9.14;;;9.14;;
2710;SDS011;20721;47.402;8.550;2022-08-30T02:10:00;9.53;;;9.53;;
2710;SDS011;20721;47.402;8.550;2022-08-30T02:10:59;9.79;;;9.79;;
2710;SDS011;20721;47.402;8.550;2022-08-30T02:11:59;9.60;;;9.60;;
2710;SDS011;20721;47.402;8.550;2022-08-30T02:12:59;10.18;;;10.18;;
2710;SDS011;20721;47.402;8.550;2022-08-30T02:13:59;9.27;;;9.27;;
2710;SDS011;20721;47.402;8.550;2022-08-30T02:15:59;9.23;;;9.23;;
2710;SDS011;20721;47.402;8.550;2022-08-30T02:16:59;9.94;;;9.94;;
2710;SDS011;20721;47.402;8.550;2022-08-30T02:17:59;8.86;;;8.86;;
2710;SDS011;20721;47.402;8.550;2022-08-30T02:19:00;9.39;;;9.39;;
2710;SDS011;20721;47.402;8.550;2022-08-30T02:19:59;10.14;;;10.14;;
2710;SDS011;20721;47.402;8.550;2022-08-30T02:22:59;8.96;;;8.96;;
2710;SDS011;20721;47.402;8.550;2022-08-30T02:24:00;9.11;;;9.11;;
2710;SDS011;20721;47.402;8.550;2022-08-30T02:24:59;9.52;;;9.52;;
2710;SDS011;20721;47.402;8.550;2022-08-30T02:27:02;9.13;;;9.13;;
2710;SDS011;20721;47.402;8.550;2022-08-30T02:27:59;9.72;;;9.62;;
2710;SDS011;20721;47.402;8.550;2022-08-30T02:29:01;10.75;;;10.47;;
2710;SDS011;20721;47.402;8.550;2022-08-30T02:29:59;9.74;;;9.74;;
2710;SDS011;20721;47.402;8.550;2022-08-30T02:30:59;10.42;;;10.42;;
2710;SDS011;20721;47.402;8.550;2022-08-30T02:31:59;10.12;;;10.12;;
2710;SDS011;20721;47.402;8.550;2022-08-30T02:32:59;10.01;;;10.01;;
2710;SDS011;20721;47.402;8.550;2022-08-30T02:34:00;9.35;;;9.35;;
2710;SDS011;20721;47.402;8.550;2022-08-30T02:35:00;9.48;;;9.48;;
2710;SDS011;20721;47.402;8.550;2022-08-30T02:35:59;9.79;;;9.79;;
2710;SDS011;20721;47.402;8.550;2022-08-30T02:36:59;11.07;;;11.07;;
2710;SDS011;20721;47.402;8.550;2022-08-30T02:39:00;9.75;;;9.75;;
2710;SDS011;20721;47.402;8.550;2022-08-30T02:39:59;9.93;;;9.93;;
2710;SDS011;20721;47.402;8.550;2022-08-30T02:41:00;9.28;;;9.28;;
2710;SDS011;20721;47.402;8.550;2022-08-30T02:43:59;8.58;;;8.58;;
2710;SDS011;20721;47.402;8.550;2022-08-30T02:44:59;8.64;;;8.64;;
2710;SDS011;20721;47.402;8.550;2022-08-30T02:45:59;8.21;;;8.21;;
2710;SDS011;20721;47.402;8.550;2022-08-30T02:46:59;8.01;;;8.01;;
2710;SDS011;20721;47.402;8.550;2022-08-30T02:47:59;8.72;;;8.72;;
2710;SDS011;20721;47.402;8.550;2022-08-30T02:48:59;9.88;;;9.88;;
2710;SDS011;20721;47.402;8.550;2022-08-30T02:50:00;9.11;;;8.85;;
2710;SDS011;20721;47.402;8.550;2022-08-30T02:51:09;8.88;;;8.88;;
2710;SDS011;20721;47.402;8.550;2022-08-30T02:53:00;8.23;;;8.20;;
2710;SDS011;20721;47.402;8.550;2022-08-30T02:53:59;9.79;;;9.79;;
2710;SDS011;20721;47.402;8.550;2022-08-30T02:55:59;10.38;;;10.38;;
2710;SDS011;20721;47.402;8.550;2022-08-30T02:56:59;10.04;;;9.95;;
2710;SDS011;20721;47.402;8.550;2022-08-30T02:57:59;10.00;;;10.00;;
2710;SDS011;20721;47.402;8.550;2022-08-30T02:58:59;9.48;;;9.48;;
2710;SDS011;20721;47.402;8.550;2022-08-30T02:59:59;9.55;;;9.54;;
2710;SDS011;20721;47.402;8.550;2022-08-30T03:01:03;9.91;;;9.57;;
2710;SDS011;20721;47.402;8.550;2022-08-30T03:01:59;8.80;;;8.71;;
2710;SDS011;20721;47.402;8.550;2022-08-30T03:02:59;9.11;;;9.11;;
2710;SDS011;20721;47.402;8.550;2022-08-30T03:03:59;9.50;;;9.26;;
2710;SDS011;20721;47.402;8.550;2022-08-30T03:05:59;9.37;;;9.37;;
2710;SDS011;20721;47.402;8.550;2022-08-30T03:07:00;9.44;;;9.44;;
2710;SDS011;20721;47.402;8.550;2022-08-30T03:07:59;10.22;;;10.02;;
2710;SDS011;20721;47.402;8.550;2022-08-30T03:08:59;9.41;;;9.40;;
2710;SDS011;20721;47.402;8.550;2022-08-30T03:09:59;9.14;;;9.11;;
2710;SDS011;20721;47.402;8.550;2022-08-30T03:10:59;9.89;;;9.89;;
2710;SDS011;20721;47.402;8.550;2022-08-30T03:11:59;9.37;;;9.37;;
2710;SDS011;20721;47.402;8.550;2022-08-30T03:12:59;9.30;;;9.30;;
2710;SDS011;20721;47.402;8.550;2022-08-30T03:14:59;9.69;;;9.69;;
2710;SDS011;20721;47.402;8.550;2022-08-30T03:15:59;9.41;;;9.41;;
2710;SDS011;20721;47.402;8.550;2022-08-30T03:17:00;9.19;;;9.19;;
2710;SDS011;20721;47.402;8.550;2022-08-30T03:18:00;9.19;;;9.19;;
2710;SDS011;20721;47.402;8.550;2022-08-30T03:18:59;9.57;;;9.57;;
2710;SDS011;20721;47.402;8.550;2022-08-30T03:21:13;9.35;;;9.35;;
2710;SDS011;20721;47.402;8.550;2022-08-30T03:22:00;9.16;;;9.16;;
2710;SDS011;20721;47.402;8.550;2022-08-30T03:23:00;10.23;;;10.22;;
2710;SDS011;20721;47.402;8.550;2022-08-30T03:23:59;10.75;;;10.75;;
2710;SDS011;20721;47.402;8.550;2022-08-30T03:24:59;9.97;;;9.97;;
2710;SDS011;20721;47.402;8.550;2022-08-30T03:25:59;9.97;;;9.75;;
2710;SDS011;20721;47.402;8.550;2022-08-30T03:26:59;10.02;;;10.02;;
2710;SDS011;20721;47.402;8.550;2022-08-30T03:28:00;10.04;;;10.04;;
2710;SDS011;20721;47.402;8.550;2022-08-30T03:28:59;10.21;;;10.21;;
2710;SDS011;20721;47.402;8.550;2022-08-30T03:30:59;10.37;;;10.37;;
2710;SDS011;20721;47.402;8.550;2022-08-30T03:32:05;9.78;;;9.78;;
2710;SDS011;20721;47.402;8.550;2022-08-30T03:33:01;9.74;;;9.74;;
2710;SDS011;20721;47.402;8.550;2022-08-30T03:33:59;9.62;;;9.62;;
2710;SDS011;20721;47.402;8.550;2022-08-30T03:34:59;9.89;;;9.89;;
2710;SDS011;20721;47.402;8.550;2022-08-30T03:35:59;10.39;;;10.35;;
2710;SDS011;20721;47.402;8.550;2022-08-30T03:37:01;9.67;;;9.67;;
2710;SDS011;20721;47.402;8.550;2022-08-30T03:38:07;9.18;;;9.18;;
2710;SDS011;20721;47.402;8.550;2022-08-30T03:38:59;9.94;;;9.94;;
2710;SDS011;20721;47.402;8.550;2022-08-30T03:40:00;9.78;;;9.78;;
2710;SDS011;20721;47.402;8.550;2022-08-30T03:41:00;10.17;;;10.17;;
2710;SDS011;20721;47.402;8.550;2022-08-30T03:42:00;10.05;;;9.87;;
2710;SDS011;20721;47.402;8.550;2022-08-30T03:42:59;10.57;;;10.57;;
2710;SDS011;20721;47.402;8.550;2022-08-30T03:44:01;10.05;;;10.05;;
2710;SDS011;20721;47.402;8.550;2022-08-30T03:44:59;9.91;;;9.91;;
2710;SDS011;20721;47.402;8.550;2022-08-30T03:49:01;10.78;;;10.78;;
2710;SDS011;20721;47.402;8.550;2022-08-30T03:51:59;10.30;;;10.29;;
2710;SDS011;20721;47.402;8.550;2022-08-30T03:52:59;10.38;;;10.32;;
2710;SDS011;20721;47.402;8.550;2022-08-30T03:59:59;9.51;;;9.51;;
2710;SDS011;20721;47.402;8.550;2022-08-30T04:00:59;9.85;;;9.85;;
2710;SDS011;20721;47.402;8.550;2022-08-30T04:01:59;9.63;;;9.63;;
2710;SDS011;20721;47.402;8.550;2022-08-30T04:02:59;10.24;;;10.24;;
2710;SDS011;20721;47.402;8.550;2022-08-30T04:03:59;10.93;;;10.75;;
2710;SDS011;20721;47.402;8.550;2022-08-30T04:05:59;11.26;;;10.86;;
2710;SDS011;20721;47.402;8.550;2022-08-30T04:06:59;10.38;;;10.11;;
2710;SDS011;20721;47.402;8.550;2022-08-30T04:11:00;10.25;;;10.25;;
2710;SDS011;20721;47.402;8.550;2022-08-30T04:13:00;10.05;;;10.05;;
2710;SDS011;20721;47.402;8.550;2022-08-30T04:14:00;10.10;;;10.10;;
2710;SDS011;20721;47.402;8.550;2022-08-30T04:16:00;9.91;;;9.91;;
2710;SDS011;20721;47.402;8.550;2022-08-30T04:18:00;9.72;;;9.72;;
2710;SDS011;20721;47.402;8.550;2022-08-30T04:21:01;10.62;;;10.62;;
2710;SDS011;20721;47.402;8.550;2022-08-30T04:22:59;8.85;;;8.85;;
2710;SDS011;20721;47.402;8.550;2022-08-30T04:23:59;10.24;;;10.24;;
2710;SDS011;20721;47.402;8.550;2022-08-30T04:28:00;9.88;;;9.88;;
2710;SDS011;20721;47.402;8.550;2022-08-30T04:28:59;8.99;;;8.99;;
2710;SDS011;20721;47.402;8.550;2022-08-30T04:29:59;10.93;;;10.93;;
2710;SDS011;20721;47.402;8.550;2022-08-30T04:30:59;10.96;;;10.96;;
2710;SDS011;20721;47.402;8.550;2022-08-30T04:32:00;10.60;;;10.60;;
2710;SDS011;20721;47.402;8.550;2022-08-30T04:36:00;10.35;;;10.35;;
2710;SDS011;20721;47.402;8.550;2022-08-30T04:38:00;11.03;;;10.99;;
2710;SDS011;20721;47.402;8.550;2022-08-30T04:38:59;10.91;;;10.91;;
2710;SDS011;20721;47.402;8.550;2022-08-30T04:40:00;10.79;;;10.79;;
2710;SDS011;20721;47.402;8.550;2022-08-30T04:41:00;10.48;;;10.48;;
2710;SDS011;20721;47.402;8.550;2022-08-30T04:43:03;10.54;;;10.47;;
2710;SDS011;20721;47.402;8.550;2022-08-30T04:44:00;10.57;;;10.55;;
2710;SDS011;20721;47.402;8.550;2022-08-30T04:45:01;11.41;;;11.41;;
2710;SDS011;20721;47.402;8.550;2022-08-30T04:46:59;10.44;;;10.44;;
2710;SDS011;20721;47.402;8.550;2022-08-30T04:47:59;10.86;;;10.86;;
2710;SDS011;20721;47.402;8.550;2022-08-30T04:48:59;11.09;;;11.04;;
2710;SDS011;20721;47.402;8.550;2022-08-30T04:50:00;10.49;;;10.43;;
2710;SDS011;20721;47.402;8.550;2022-08-30T04:51:01;11.01;;;11.01;;
2710;SDS011;20721;47.402;8.550;2022-08-30T04:53:59;10.54;;;10.54;;
2710;SDS011;20721;47.402;8.550;2022-08-30T04:56:00;11.05;;;11.05;;
2710;SDS011;20721;47.402;8.550;2022-08-30T05:00:00;11.06;;;11.01;;
2710;SDS011;20721;47.402;8.550;2022-08-30T05:01:00;10.70;;;10.69;;
2710;SDS011;20721;47.402;8.550;2022-08-30T05:01:59;11.43;;;11.41;;
2710;SDS011;20721;47.402;8.550;2022-08-30T05:04:01;9.99;;;9.99;;
2710;SDS011;20721;47.402;8.550;2022-08-30T05:05:10;11.76;;;11.76;;
2710;SDS011;20721;47.402;8.550;2022-08-30T05:06:00;11.01;;;11.01;;
2710;SDS011;20721;47.402;8.550;2022-08-30T05:07:59;10.90;;;10.66;;
2710;SDS011;20721;47.402;8.550;2022-08-30T05:09:00;10.70;;;10.61;;
2710;SDS011;20721;47.402;8.550;2022-08-30T05:09:59;10.75;;;10.75;;
2710;SDS011;20721;47.402;8.550;2022-08-30T05:11:02;10.34;;;10.29;;
2710;SDS011;20721;47.402;8.550;2022-08-30T05:11:59;11.81;;;11.64;;
2710;SDS011;20721;47.402;8.550;2022-08-30T05:13:00;11.80;;;11.51;;
2710;SDS011;20721;47.402;8.550;2022-08-30T05:13:59;11.31;;;11.11;;
2710;SDS011;20721;47.402;8.550;2022-08-30T05:16:00;11.43;;;11.39;;
2710;SDS011;20721;47.402;8.550;2022-08-30T05:16:59;12.47;;;12.08;;
2710;SDS011;20721;47.402;8.550;2022-08-30T05:18:00;11.56;;;11.56;;
2710;SDS011;20721;47.402;8.550;2022-08-30T05:19:00;10.87;;;10.87;;
2710;SDS011;20721;47.402;8.550;2022-08-30T05:20:00;11.44;;;11.44;;
2710;SDS011;20721;47.402;8.550;2022-08-30T05:21:59;10.78;;;10.78;;
2710;SDS011;20721;47.402;8.550;2022-08-30T05:23:04;10.61;;;10.61;;
2710;SDS011;20721;47.402;8.550;2022-08-30T05:24:02;11.40;;;11.40;;
2710;SDS011;20721;47.402;8.550;2022-08-30T05:24:59;11.45;;;11.30;;
2710;SDS011;20721;47.402;8.550;2022-08-30T05:26:03;10.65;;;10.62;;
2710;SDS011;20721;47.402;8.550;2022-08-30T05:27:00;12.64;;;12.41;;
2710;SDS011;20721;47.402;8.550;2022-08-30T05:28:00;10.61;;;10.61;;
2710;SDS011;20721;47.402;8.550;2022-08-30T05:29:00;11.80;;;11.52;;
2710;SDS011;20721;47.402;8.550;2022-08-30T05:30:00;12.04;;;11.79;;
2710;SDS011;20721;47.402;8.550;2022-08-30T05:31:00;12.70;;;12.54;;
2710;SDS011;20721;47.402;8.550;2022-08-30T05:32:00;11.79;;;11.61;;
2710;SDS011;20721;47.402;8.550;2022-08-30T05:33:00;10.75;;;10.75;;
2710;SDS011;20721;47.402;8.550;2022-08-30T05:34:00;12.64;;;12.47;;
2710;SDS011;20721;47.402;8.550;2022-08-30T05:35:03;11.32;;;11.10;;
2710;SDS011;20721;47.402;8.550;2022-08-30T05:37:00;11.96;;;11.94;;
2710;SDS011;20721;47.402;8.550;2022-08-30T05:38:00;11.71;;;11.50;;
2710;SDS011;20721;47.402;8.550;2022-08-30T05:39:00;13.13;;;12.69;;
2710;SDS011;20721;47.402;8.550;2022-08-30T05:40:02;12.03;;;12.02;;
2710;SDS011;20721;47.402;8.550;2022-08-30T05:41:02;11.39;;;11.39;;
2710;SDS011;20721;47.402;8.550;2022-08-30T05:42:04;12.13;;;12.13;;
2710;SDS011;20721;47.402;8.550;2022-08-30T05:43:00;12.13;;;11.96;;
2710;SDS011;20721;47.402;8.550;2022-08-30T05:44:02;12.78;;;12.78;;
2710;SDS011;20721;47.402;8.550;2022-08-30T05:45:01;13.32;;;13.32;;
2710;SDS011;20721;47.402;8.550;2022-08-30T05:46:09;12.86;;;12.86;;
2710;SDS011;20721;47.402;8.550;2022-08-30T05:47:00;11.69;;;11.64;;
2710;SDS011;20721;47.402;8.550;2022-08-30T05:48:00;13.32;;;13.32;;
2710;SDS011;20721;47.402;8.550;2022-08-30T05:49:01;12.58;;;12.58;;
2710;SDS011;20721;47.402;8.550;2022-08-30T05:50:00;13.48;;;13.48;;
2710;SDS011;20721;47.402;8.550;2022-08-30T05:51:00;11.22;;;11.22;;
2710;SDS011;20721;47.402;8.550;2022-08-30T05:52:00;12.56;;;12.43;;
2710;SDS011;20721;47.402;8.550;2022-08-30T05:53:00;12.72;;;12.72;;
2710;SDS011;20721;47.402;8.550;2022-08-30T05:54:01;11.86;;;11.72;;
2710;SDS011;20721;47.402;8.550;2022-08-30T05:55:01;11.03;;;11.01;;
2710;SDS011;20721;47.402;8.550;2022-08-30T05:56:01;11.93;;;11.93;;
2710;SDS011;20721;47.402;8.550;2022-08-30T05:57:00;12.33;;;12.33;;
2710;SDS011;20721;47.402;8.550;2022-08-30T05:58:00;12.24;;;12.24;;
2710;SDS011;20721;47.402;8.550;2022-08-30T05:59:00;13.19;;;13.13;;
2710;SDS011;20721;47.402;8.550;2022-08-30T06:00:00;12.70;;;12.69;;
2710;SDS011;20721;47.402;8.550;2022-08-30T06:01:00;13.56;;;13.48;;
2710;SDS011;20721;47.402;8.550;2022-08-30T06:02:00;11.99;;;11.82;;
2710;SDS011;20721;47.402;8.550;2022-08-30T06:03:02;13.12;;;13.02;;
2710;SDS011;20721;47.402;8.550;2022-08-30T06:04:01;12.45;;;12.45;;
2710;SDS011;20721;47.402;8.550;2022-08-30T06:05:01;13.44;;;13.21;;
2710;SDS011;20721;47.402;8.550;2022-08-30T06:06:00;12.25;;;12.24;;
2710;SDS011;20721;47.402;8.550;2022-08-30T06:07:00;12.79;;;12.78;;
2710;SDS011;20721;47.402;8.550;2022-08-30T06:08:00;12.45;;;12.43;;
2710;SDS011;20721;47.402;8.550;2022-08-30T06:09:00;13.28;;;13.18;;
2710;SDS011;20721;47.402;8.550;2022-08-30T06:10:00;13.81;;;13.52;;
2710;SDS011;20721;47.402;8.550;2022-08-30T06:11:00;12.97;;;12.97;;
2710;SDS011;20721;47.402;8.550;2022-08-30T06:12:00;10.93;;;10.93;;
2710;SDS011;20721;47.402;8.550;2022-08-30T06:13:00;11.23;;;11.23;;
2710;SDS011;20721;47.402;8.550;2022-08-30T06:14:01;12.29;;;12.29;;
2710;SDS011;20721;47.402;8.550;2022-08-30T06:15:03;12.59;;;12.36;;
2710;SDS011;20721;47.402;8.550;2022-08-30T06:16:01;12.98;;;12.77;;
2710;SDS011;20721;47.402;8.550;2022-08-30T06:17:00;12.61;;;12.50;;
2710;SDS011;20721;47.402;8.550;2022-08-30T06:18:00;11.82;;;11.82;;
2710;SDS011;20721;47.402;8.550;2022-08-30T06:19:00;12.31;;;12.11;;
2710;SDS011;20721;47.402;8.550;2022-08-30T06:20:00;11.86;;;11.86;;
2710;SDS011;20721;47.402;8.550;2022-08-30T06:21:01;11.78;;;11.78;;
2710;SDS011;20721;47.402;8.550;2022-08-30T06:22:00;11.43;;;11.29;;
2710;SDS011;20721;47.402;8.550;2022-08-30T06:23:00;12.03;;;11.89;;
2710;SDS011;20721;47.402;8.550;2022-08-30T06:24:01;11.22;;;11.04;;
2710;SDS011;20721;47.402;8.550;2022-08-30T06:25:08;11.45;;;11.39;;
2710;SDS011;20721;47.402;8.550;2022-08-30T06:26:03;11.92;;;11.92;;
2710;SDS011;20721;47.402;8.550;2022-08-30T06:27:01;12.18;;;12.18;;
2710;SDS011;20721;47.402;8.550;2022-08-30T06:28:06;11.96;;;11.96;;
2710;SDS011;20721;47.402;8.550;2022-08-30T06:29:00;11.43;;;11.43;;
2710;SDS011;20721;47.402;8.550;2022-08-30T06:30:00;12.34;;;12.34;;
2710;SDS011;20721;47.402;8.550;2022-08-30T06:31:00;11.67;;;11.67;;
2710;SDS011;20721;47.402;8.550;2022-08-30T06:32:00;11.86;;;11.86;;
2710;SDS011;20721;47.402;8.550;2022-08-30T06:33:00;11.74;;;11.74;;
2710;SDS011;20721;47.402;8.550;2022-08-30T06:34:00;11.42;;;11.42;;
2710;SDS011;20721;47.402;8.550;2022-08-30T06:35:00;11.75;;;11.75;;
2710;SDS011;20721;47.402;8.550;2022-08-30T06:36:19;12.26;;;12.26;;
2710;SDS011;20721;47.402;8.550;2022-08-30T06:37:00;11.50;;;11.50;;
2710;SDS011;20721;47.402;8.550;2022-08-30T06:38:00;12.82;;;12.50;;
2710;SDS011;20721;47.402;8.550;2022-08-30T06:39:02;11.89;;;11.80;;
2710;SDS011;20721;47.402;8.550;2022-08-30T06:40:00;12.86;;;12.71;;
2710;SDS011;20721;47.402;8.550;2022-08-30T06:41:04;12.45;;;12.45;;
2710;SDS011;20721;47.402;8.550;2022-08-30T06:42:00;11.36;;;11.36;;
2710;SDS011;20721;47.402;8.550;2022-08-30T06:43:00;10.62;;;10.56;;
2710;SDS011;20721;47.402;8.550;2022-08-30T06:44:01;11.19;;;11.11;;
2710;SDS011;20721;47.402;8.550;2022-08-30T06:45:04;10.47;;;10.47;;
2710;SDS011;20721;47.402;8.550;2022-08-30T06:46:01;11.09;;;11.08;;
2710;SDS011;20721;47.402;8.550;2022-08-30T06:47:00;12.32;;;12.32;;
2710;SDS011;20721;47.402;8.550;2022-08-30T06:48:00;12.01;;;12.01;;
2710;SDS011;20721;47.402;8.550;2022-08-30T06:49:00;11.71;;;11.51;;
2710;SDS011;20721;47.402;8.550;2022-08-30T06:50:00;11.91;;;11.91;;
2710;SDS011;20721;47.402;8.550;2022-08-30T06:51:03;12.12;;;12.12;;
2710;SDS011;20721;47.402;8.550;2022-08-30T06:52:02;11.23;;;11.23;;
2710;SDS011;20721;47.402;8.550;2022-08-30T06:53:00;11.55;;;11.52;;
2710;SDS011;20721;47.402;8.550;2022-08-30T06:54:01;12.25;;;11.89;;
2710;SDS011;20721;47.402;8.550;2022-08-30T06:55:03;11.79;;;11.73;;
2710;SDS011;20721;47.402;8.550;2022-08-30T06:56:05;11.73;;;11.65;;
2710;SDS011;20721;47.402;8.550;2022-08-30T06:57:08;11.43;;;11.32;;
2710;SDS011;20721;47.402;8.550;2022-08-30T06:58:00;10.90;;;10.90;;
2710;SDS011;20721;47.402;8.550;2022-08-30T06:59:00;12.14;;;12.14;;
2710;SDS011;20721;47.402;8.550;2022-08-30T07:00:07;11.49;;;11.49;;
2710;SDS011;20721;47.402;8.550;2022-08-30T07:01:00;12.57;;;12.46;;
2710;SDS011;20721;47.402;8.550;2022-08-30T07:02:00;11.91;;;11.91;;
2710;SDS011;20721;47.402;8.550;2022-08-30T07:03:00;11.21;;;11.21;;
2710;SDS011;20721;47.402;8.550;2022-08-30T07:04:00;11.29;;;11.29;;
2710;SDS011;20721;47.402;8.550;2022-08-30T07:05:00;10.91;;;10.91;;
2710;SDS011;20721;47.402;8.550;2022-08-30T07:06:00;11.90;;;11.90;;
2710;SDS011;20721;47.402;8.550;2022-08-30T07:07:00;12.08;;;12.08;;
2710;SDS011;20721;47.402;8.550;2022-08-30T07:08:02;12.56;;;12.56;;
2710;SDS011;20721;47.402;8.550;2022-08-30T07:09:06;11.24;;;11.24;;
2710;SDS011;20721;47.402;8.550;2022-08-30T07:10:01;11.86;;;11.86;;
2710;SDS011;20721;47.402;8.550;2022-08-30T07:11:01;11.43;;;11.43;;
2710;SDS011;20721;47.402;8.550;2022-08-30T07:12:01;10.97;;;10.96;;
2710;SDS011;20721;47.402;8.550;2022-08-30T07:13:00;10.77;;;10.77;;
2710;SDS011;20721;47.402;8.550;2022-08-30T07:14:00;11.57;;;11.57;;
2710;SDS011;20721;47.402;8.550;2022-08-30T07:15:01;11.46;;;11.46;;
2710;SDS011;20721;47.402;8.550;2022-08-30T07:16:00;11.79;;;11.79;;
2710;SDS011;20721;47.402;8.550;2022-08-30T07:17:02;11.17;;;11.07;;
2710;SDS011;20721;47.402;8.550;2022-08-30T07:18:10;11.13;;;11.13;;
2710;SDS011;20721;47.402;8.550;2022-08-30T07:19:04;11.23;;;11.23;;
2710;SDS011;20721;47.402;8.550;2022-08-30T07:20:00;12.10;;;12.10;;